Aviation Digital Data Service (ADDS)

Output produced by METARs form (1326 UTC 27 July 2016)
found at http://www.aviationweather.gov/adds/metars/
 
KDOV 271318Z AUTO 08003KT 7SM FEW009 29/28 A2992 RMK AO2 RAB06E09DZB09E18
TAF AMD KDOV 271231Z 2712/2814 09005KT 9000 -SHRA SCT008 BKN014 QNH2989INS 
     BECMG 2713/2714 20006KT 9000 -SHRA BKN020 OVC030 QNH2988INS 
     BECMG 2723/2724 20006KT 9999 NSW FEW020 SCT060 QNH2987INS TX32/2718Z TN28/2712Z